Time;durP1;ratioP1;P1;durP2;ratioP2;P2;SDS_P1;SDS_P2;PMS_P1;PMS_P2;Temp;Humidity;BMP_temperature;BMP_pressure;BME280_temperature;BME280_humidity;BME280_pressure;Samples;Min_cycle;Max_cycle;Signal;HPM_P1;HPM_P2
2022/11/30 00:00:33;;;;;;;4.28;3.20;;;15.40;89.10;;;;;;4210634;28;20043;-55
2022/11/30 00:03:14;;;;;;;0.10;0.10;;;15.40;89.20;;;;;;4200643;28;20051;-54
2022/11/30 00:05:55;;;;;;;3.80;1.80;;;15.40;89.20;;;;;;4193289;28;20514;-53
2022/11/30 00:08:37;;;;;;;0.00;0.00;;;15.30;89.20;;;;;;4177352;28;20060;-56
2022/11/30 00:11:20;;;;;;;0.60;0.60;;;15.30;89.30;;;;;;4177619;28;20056;-56
2022/11/30 00:14:01;;;;;;;0.10;0.10;;;15.30;89.30;;;;;;4175941;28;20083;-55
2022/11/30 00:16:41;;;;;;;0.10;0.10;;;15.30;89.40;;;;;;4184038;28;20047;-50
2022/11/30 00:19:22;;;;;;;0.40;0.40;;;15.30;89.50;;;;;;4210360;28;20407;-52
2022/11/30 00:22:03;;;;;;;0.20;0.20;;;15.30;89.50;;;;;;4193747;28;20130;-53
2022/11/30 00:24:45;;;;;;;0.38;0.38;;;15.20;89.50;;;;;;4164483;28;20044;-56
2022/11/30 00:27:28;;;;;;;0.25;0.25;;;15.30;89.60;;;;;;4176909;28;20055;-55
2022/11/30 00:30:10;;;;;;;0.40;0.40;;;15.30;89.70;;;;;;4175775;28;20076;-55
2022/11/30 00:32:50;;;;;;;;;;;15.30;89.70;;;;;;4177384;28;20511;-55
2022/11/30 00:35:31;;;;;;;0.60;0.60;;;15.20;89.60;;;;;;4209394;27;19981;-55
2022/11/30 00:38:12;;;;;;;2.95;1.20;;;15.20;89.70;;;;;;4210324;28;20407;-54
2022/11/30 00:40:55;;;;;;;0.47;0.47;;;15.20;89.90;;;;;;4190536;28;20055;-53
2022/11/30 00:43:36;;;;;;;0.65;0.65;;;15.20;89.90;;;;;;4193022;28;20132;-55
2022/11/30 00:46:17;;;;;;;1.08;0.85;;;15.20;89.90;;;;;;4193357;28;20052;-55
2022/11/30 00:48:59;;;;;;;5.82;1.10;;;15.20;89.90;;;;;;4193002;28;20170;-55
2022/11/30 00:51:40;;;;;;;0.57;0.57;;;15.20;89.80;;;;;;4192993;28;20601;-56
2022/11/30 00:54:21;;;;;;;1.30;1.20;;;15.20;89.80;;;;;;4192764;28;20396;-55
2022/11/30 00:57:04;;;;;;;1.20;1.20;;;15.20;89.60;;;;;;4180338;28;20086;-54
2022/11/30 00:59:44;;;;;;;3.85;1.90;;;15.20;89.60;;;;;;4190546;28;20141;-56
2022/11/30 01:02:25;;;;;;;4.07;2.35;;;15.10;89.70;;;;;;4192653;28;20096;-54
2022/11/30 01:05:06;;;;;;;0.40;0.40;;;15.10;89.70;;;;;;4191780;28;20059;-55
2022/11/30 01:07:47;;;;;;;2.85;2.65;;;15.10;89.70;;;;;;4192692;28;20052;-55
2022/11/30 01:10:29;;;;;;;17.50;1.73;;;15.10;89.70;;;;;;4191535;28;20047;-54
2022/11/30 01:13:12;;;;;;;1.65;1.55;;;15.10;89.70;;;;;;4192702;28;20051;-53
2022/11/30 01:15:52;;;;;;;1.20;0.70;;;15.10;89.80;;;;;;4205045;28;20059;-60
2022/11/30 01:18:36;;;;;;;0.22;0.22;;;15.10;89.80;;;;;;4191096;28;20047;-60
2022/11/30 01:21:20;;;;;;;0.10;0.10;;;15.00;89.70;;;;;;4192217;28;20075;-59
2022/11/30 01:24:01;;;;;;;0.20;0.20;;;15.00;89.80;;;;;;4192292;28;20047;-59
2022/11/30 01:26:42;;;;;;;0.43;0.43;;;15.00;90.00;;;;;;4163210;28;20056;-59
2022/11/30 01:29:24;;;;;;;1.40;1.30;;;15.00;90.00;;;;;;4192555;28;20055;-60
2022/11/30 01:32:05;;;;;;;1.48;1.48;;;15.00;90.00;;;;;;4192013;28;20052;-60
2022/11/30 01:34:46;;;;;;;0.50;0.50;;;15.00;90.00;;;;;;4178025;28;20060;-60
2022/11/30 01:37:28;;;;;;;1.65;1.55;;;15.00;90.10;;;;;;4192369;28;20108;-60
2022/11/30 01:40:10;;;;;;;;;;;15.00;90.10;;;;;;4192578;28;20051;-60
2022/11/30 01:42:51;;;;;;;0.00;0.00;;;15.00;90.00;;;;;;4193654;27;19932;-59
2022/11/30 01:45:33;;;;;;;0.43;0.43;;;15.00;90.00;;;;;;4192273;28;20056;-60
2022/11/30 01:48:14;;;;;;;0.25;0.25;;;15.00;90.10;;;;;;4191607;28;20059;-60
2022/11/30 01:50:55;;;;;;;0.00;0.00;;;14.90;90.00;;;;;;4175775;28;20056;-51
2022/11/30 01:53:36;;;;;;;;;;;14.90;90.00;;;;;;4183624;28;20380;-53
2022/11/30 01:56:17;;;;;;;0.20;0.20;;;14.90;90.00;;;;;;4192246;28;19966;-53
2022/11/30 01:58:58;;;;;;;5.13;2.10;;;14.90;90.10;;;;;;4188520;28;20302;-52
2022/11/30 02:01:41;;;;;;;0.08;0.08;;;14.90;90.50;;;;;;4171535;28;20098;-52
2022/11/30 02:04:26;;;;;;;0.35;0.35;;;14.90;90.50;;;;;;4185539;28;20047;-55
2022/11/30 02:07:08;;;;;;;0.43;0.43;;;14.90;90.20;;;;;;4192380;28;20186;-55
2022/11/30 02:09:49;;;;;;;0.00;0.00;;;14.90;90.60;;;;;;4190497;28;20186;-54
2022/11/30 02:12:39;;;;;;;0.00;0.00;;;14.90;90.20;;;;;;4191004;28;20121;-52
2022/11/30 02:15:25;;;;;;;0.00;0.00;;;14.90;90.20;;;;;;4176165;28;20048;-51
2022/11/30 02:18:12;;;;;;;1.00;1.00;;;14.90;90.20;;;;;;4175023;28;20183;-53
2022/11/30 02:21:02;;;;;;;0.88;0.88;;;14.90;90.20;;;;;;4175249;28;20070;-60
2022/11/30 02:24:04;;;;;;;0.32;0.32;;;14.90;90.30;;;;;;4175648;28;20106;-60
2022/11/30 02:27:03;;;;;;;9.38;1.95;;;14.90;90.30;;;;;;4191453;28;20055;-60
2022/11/30 02:29:49;;;;;;;0.45;0.45;;;15.00;90.10;;;;;;4191195;28;20055;-60
2022/11/30 02:32:33;;;;;;;0.30;0.30;;;15.10;90.00;;;;;;4196070;28;20117;-60
2022/11/30 02:35:17;;;;;;;0.55;0.55;;;15.10;89.80;;;;;;4191458;28;20130;-59
2022/11/30 02:38:00;;;;;;;0.88;0.88;;;15.20;89.80;;;;;;4191269;28;20059;-60
2022/11/30 02:40:41;;;;;;;3.10;1.00;;;15.20;89.60;;;;;;4191221;28;20043;-67
2022/11/30 02:43:24;;;;;;;0.65;0.63;;;15.30;89.40;;;;;;4201525;28;20050;-63
2022/11/30 02:46:14;;;;;;;0.10;0.10;;;15.30;89.20;;;;;;4207047;28;20051;-61
2022/11/30 02:49:03;;;;;;;1.30;1.20;;;15.30;89.00;;;;;;4200067;28;20467;-60
2022/11/30 02:51:46;;;;;;;1.10;1.10;;;15.40;89.00;;;;;;4191314;28;20558;-60
2022/11/30 02:54:27;;;;;;;0.65;0.65;;;15.30;88.70;;;;;;4191428;28;20063;-60
2022/11/30 02:57:08;;;;;;;0.40;0.40;;;15.30;88.90;;;;;;4192465;28;20214;-64
2022/11/30 02:59:49;;;;;;;1.63;1.60;;;15.30;88.70;;;;;;4192142;28;20194;-60
2022/11/30 03:02:31;;;;;;;0.00;0.00;;;15.40;88.60;;;;;;4203608;28;20086;-60
2022/11/30 03:05:12;;;;;;;0.00;0.00;;;15.50;88.40;;;;;;4191432;28;20175;-60
2022/11/30 03:07:53;;;;;;;0.40;0.40;;;15.50;88.00;;;;;;4191939;28;20407;-60
2022/11/30 03:10:34;;;;;;;1.48;1.33;;;15.60;87.80;;;;;;4206846;28;20059;-60
2022/11/30 03:13:14;;;;;;;0.93;0.93;;;15.60;87.70;;;;;;4207954;28;20101;-60
2022/11/30 03:15:56;;;;;;;2.17;2.08;;;15.60;87.50;;;;;;4174050;28;20048;-60
2022/11/30 03:18:40;;;;;;;;;;;15.60;87.50;;;;;;4174974;28;20164;-60
2022/11/30 03:21:20;;;;;;;0.13;0.13;;;15.60;87.60;;;;;;4174324;28;19936;-60
2022/11/30 03:24:01;;;;;;;1.88;1.67;;;15.60;87.70;;;;;;4176870;28;20051;-60
2022/11/30 03:26:42;;;;;;;3.10;1.20;;;15.60;87.40;;;;;;4177727;28;20047;-60
2022/11/30 03:29:23;;;;;;;2.37;2.27;;;15.70;87.10;;;;;;4189319;28;20531;-60
2022/11/30 03:32:05;;;;;;;2.03;1.92;;;15.80;87.00;;;;;;4210015;28;21079;-60
2022/11/30 03:34:47;;;;;;;0.98;0.90;;;15.80;86.90;;;;;;4194188;28;20110;-60
2022/11/30 03:37:28;;;;;;;1.42;1.38;;;15.80;86.60;;;;;;4197388;28;20051;-60
2022/11/30 03:40:10;;;;;;;0.00;0.00;;;15.80;86.60;;;;;;4210362;28;20050;-60
2022/11/30 03:42:51;;;;;;;0.28;0.28;;;15.80;86.60;;;;;;4210269;28;20192;-59
2022/11/30 03:45:32;;;;;;;0.45;0.45;;;15.80;86.60;;;;;;4210876;28;20047;-61
2022/11/30 03:48:13;;;;;;;0.65;0.65;;;15.80;86.30;;;;;;4204223;28;20359;-60
2022/11/30 03:50:55;;;;;;;0.95;0.95;;;15.90;86.30;;;;;;4208783;28;20889;-60
2022/11/30 03:53:36;;;;;;;0.00;0.00;;;15.90;86.20;;;;;;4177225;28;20056;-60
2022/11/30 03:56:18;;;;;;;0.70;0.70;;;15.80;86.20;;;;;;4177509;28;20086;-59
2022/11/30 03:58:59;;;;;;;0.32;0.32;;;15.80;86.00;;;;;;4207731;28;20618;-59
2022/11/30 04:01:40;;;;;;;0.75;0.75;;;15.80;86.10;;;;;;4210766;28;20185;-60
2022/11/30 04:04:21;;;;;;;;;;;15.80;86.30;;;;;;4194729;28;20125;-60
2022/11/30 04:07:03;;;;;;;0.00;0.00;;;15.80;86.60;;;;;;4195105;28;19927;-59
2022/11/30 04:09:44;;;;;;;0.32;0.32;;;15.80;86.60;;;;;;4180875;28;20063;-60
2022/11/30 04:12:24;;;;;;;0.22;0.22;;;15.80;86.50;;;;;;4193834;28;20063;-59
2022/11/30 04:15:07;;;;;;;0.15;0.15;;;15.80;87.30;;;;;;4193852;28;20117;-59
2022/11/30 04:17:48;;;;;;;0.00;0.00;;;15.80;86.30;;;;;;4200935;28;20414;-60
2022/11/30 04:20:29;;;;;;;0.28;0.28;;;15.80;86.20;;;;;;4210059;28;20058;-60
2022/11/30 04:23:12;;;;;;;1.80;1.75;;;15.90;86.20;;;;;;4176855;28;20055;-53
2022/11/30 04:25:53;;;;;;;1.13;0.85;;;15.90;86.00;;;;;;4176808;28;20087;-54
2022/11/30 04:28:34;;;;;;;0.60;0.60;;;15.90;85.90;;;;;;4207948;27;20516;-55
2022/11/30 04:31:16;;;;;;;0.10;0.10;;;15.90;85.80;;;;;;4209400;28;20051;-55
2022/11/30 04:33:57;;;;;;;0.10;0.10;;;15.90;85.70;;;;;;4193415;28;20056;-53
2022/11/30 04:36:38;;;;;;;2.85;2.65;;;15.90;85.70;;;;;;4192951;28;20518;-54
2022/11/30 04:39:21;;;;;;;0.25;0.25;;;15.90;85.90;;;;;;4179727;28;20113;-55
2022/11/30 04:42:02;;;;;;;0.30;0.30;;;15.80;85.90;;;;;;4191953;28;20097;-54
2022/11/30 04:44:43;;;;;;;0.98;0.95;;;15.80;86.20;;;;;;4193255;28;20062;-54
2022/11/30 04:47:23;;;;;;;3.65;2.53;;;15.70;85.90;;;;;;4195829;27;20051;-52
2022/11/30 04:50:05;;;;;;;0.10;0.10;;;15.70;86.10;;;;;;4197850;28;20046;-54
2022/11/30 04:52:47;;;;;;;1.45;1.02;;;15.70;86.40;;;;;;4205923;28;20055;-54
2022/11/30 04:55:29;;;;;;;3.90;2.25;;;15.70;86.60;;;;;;4192193;28;20056;-54
2022/11/30 04:58:10;;;;;;;0.40;0.40;;;15.70;86.60;;;;;;4193108;28;20048;-54
2022/11/30 05:00:54;;;;;;;0.75;0.75;;;15.70;86.40;;;;;;4192513;28;20093;-59
2022/11/30 05:03:35;;;;;;;6.43;2.88;;;15.80;86.40;;;;;;4192646;28;20708;-59
2022/11/30 05:06:16;;;;;;;1.73;1.35;;;15.80;86.10;;;;;;4191585;28;20055;-60
2022/11/30 05:08:56;;;;;;;0.00;0.00;;;15.90;86.00;;;;;;4191396;28;20618;-59
2022/11/30 05:11:39;;;;;;;2.00;1.75;;;15.90;85.80;;;;;;4174613;28;20187;-59
2022/11/30 05:14:19;;;;;;;0.52;0.52;;;15.90;85.60;;;;;;4175258;28;20055;-59
2022/11/30 05:17:00;;;;;;;0.90;0.90;;;15.90;85.60;;;;;;4175557;28;20397;-59
2022/11/30 05:19:41;;;;;;;0.28;0.28;;;15.90;85.40;;;;;;4196571;27;20051;-59
2022/11/30 05:22:22;;;;;;;0.55;0.55;;;16.00;85.10;;;;;;4209318;27;20070;-59
2022/11/30 05:25:03;;;;;;;0.20;0.20;;;16.00;85.00;;;;;;4209176;27;20125;-59
2022/11/30 05:27:46;;;;;;;0.30;0.30;;;16.00;84.80;;;;;;4202669;27;20078;-60
2022/11/30 05:30:26;;;;;;;1.48;0.35;;;16.00;84.90;;;;;;4191748;28;20054;-59
2022/11/30 05:33:08;;;;;;;3.42;1.55;;;16.00;85.00;;;;;;4190666;28;20503;-60
2022/11/30 05:35:49;;;;;;;0.05;0.05;;;15.90;85.20;;;;;;4192765;28;20560;-59
2022/11/30 05:38:30;;;;;;;0.75;0.75;;;16.00;85.30;;;;;;4206009;28;20173;-59
2022/11/30 05:41:10;;;;;;;1.10;0.27;;;16.00;85.10;;;;;;4191082;28;20055;-54
2022/11/30 05:43:53;;;;;;;0.60;0.60;;;16.00;84.80;;;;;;4192389;28;20302;-53
2022/11/30 05:46:33;;;;;;;0.17;0.17;;;16.10;84.70;;;;;;4191602;28;20305;-53
2022/11/30 05:49:19;;;;;;;0.13;0.13;;;16.10;84.60;;;;;;4176196;28;20688;-52
2022/11/30 05:52:00;;;;;;;0.10;0.10;;;16.10;84.70;;;;;;4189591;28;20183;-59
2022/11/30 05:54:41;;;;;;;0.45;0.45;;;16.10;84.80;;;;;;4208955;28;20059;-59
2022/11/30 05:57:22;;;;;;;0.90;0.90;;;16.10;84.80;;;;;;4208596;28;20129;-59
2022/11/30 06:00:06;;;;;;;1.25;1.25;;;16.10;84.70;;;;;;4208904;28;20136;-59
2022/11/30 06:02:56;;;;;;;0.93;0.93;;;16.10;84.60;;;;;;4201887;28;20055;-59
2022/11/30 06:05:37;;;;;;;1.85;1.75;;;16.00;84.50;;;;;;4190938;28;20055;-59
2022/11/30 06:08:18;;;;;;;1.88;1.75;;;16.10;84.70;;;;;;4174912;28;20123;-59
2022/11/30 06:11:00;;;;;;;0.00;0.00;;;16.10;84.60;;;;;;4174968;28;20063;-59
2022/11/30 06:13:42;;;;;;;0.10;0.10;;;16.10;84.50;;;;;;4175081;28;20052;-59
2022/11/30 06:16:24;;;;;;;3.40;3.10;;;16.10;84.60;;;;;;4199004;28;20063;-59
2022/11/30 06:19:05;;;;;;;1.05;1.05;;;16.10;84.70;;;;;;4208824;27;20085;-59
2022/11/30 06:21:46;;;;;;;0.38;0.38;;;16.00;84.60;;;;;;4208074;28;20803;-59
2022/11/30 06:24:27;;;;;;;0.08;0.08;;;16.00;84.70;;;;;;4175274;28;20052;-59
2022/11/30 06:27:08;;;;;;;0.10;0.10;;;16.00;84.60;;;;;;4175138;28;20460;-59
2022/11/30 06:29:49;;;;;;;0.28;0.28;;;16.00;85.70;;;;;;4175109;28;20460;-59
2022/11/30 06:32:31;;;;;;;0.65;0.65;;;16.00;84.80;;;;;;4178685;28;20062;-59
2022/11/30 06:35:12;;;;;;;0.40;0.40;;;16.00;84.70;;;;;;4191711;28;20047;-59
2022/11/30 06:37:54;;;;;;;0.08;0.08;;;16.00;84.60;;;;;;4190221;28;20063;-58
2022/11/30 06:40:35;;;;;;;1.30;1.30;;;16.00;84.80;;;;;;4175145;28;20084;-58
2022/11/30 06:43:16;;;;;;;0.10;0.10;;;16.10;84.40;;;;;;4175265;28;20403;-58
2022/11/30 06:45:57;;;;;;;1.35;1.35;;;16.10;84.00;;;;;;4182607;28;20113;-58
2022/11/30 06:48:39;;;;;;;0.13;0.13;;;16.10;83.80;;;;;;4170996;28;20063;-59
2022/11/30 06:51:20;;;;;;;2.40;1.08;;;16.10;83.90;;;;;;4158060;28;20134;-59
2022/11/30 06:54:01;;;;;;;0.20;0.20;;;16.10;83.60;;;;;;4161842;28;20055;-58
2022/11/30 06:56:41;;;;;;;1.23;0.75;;;16.20;83.50;;;;;;4173921;28;20059;-59
2022/11/30 06:59:23;;;;;;;0.15;0.15;;;16.20;83.50;;;;;;4178149;28;20105;-59
2022/11/30 07:02:04;;;;;;;1.08;1.08;;;16.10;83.40;;;;;;4178131;28;20056;-59
2022/11/30 07:04:51;;;;;;;5.00;1.60;;;16.10;83.60;;;;;;4208902;27;20206;-59
2022/11/30 07:07:32;;;;;;;1.63;1.60;;;16.10;83.90;;;;;;4182853;28;20063;-59
2022/11/30 07:10:13;;;;;;;0.10;0.10;;;16.10;84.20;;;;;;4193227;28;20588;-59
2022/11/30 07:12:59;;;;;;;2.08;1.83;;;16.00;84.40;;;;;;4200684;28;20058;-58
2022/11/30 07:15:41;;;;;;;5.53;1.17;;;16.00;84.70;;;;;;4208821;28;20051;-58
2022/11/30 07:18:22;;;;;;;1.10;0.52;;;15.90;84.90;;;;;;4210844;28;20062;-54
2022/11/30 07:21:11;;;;;;;2.35;2.15;;;15.90;85.00;;;;;;4193258;28;20055;-52
2022/11/30 07:26:49;;;;;;;6.68;0.80;;;15.70;85.40;;;;;;4188406;28;20063;-59
2022/11/30 07:29:30;;;;;;;0.93;0.93;;;15.70;85.70;;;;;;4191769;28;20052;-59
2022/11/30 07:32:11;;;;;;;0.00;0.00;;;15.70;85.70;;;;;;4185691;28;20510;-59
2022/11/30 07:34:52;;;;;;;0.60;0.55;;;15.60;85.70;;;;;;4174373;28;20068;-60
2022/11/30 07:37:34;;;;;;;1.77;1.67;;;15.60;85.60;;;;;;4190501;28;20059;-59
2022/11/30 07:40:15;;;;;;;0.10;0.10;;;15.50;85.70;;;;;;4177260;28;20126;-59
2022/11/30 07:42:56;;;;;;;0.22;0.22;;;15.50;85.70;;;;;;4188279;28;20064;-60
2022/11/30 07:45:37;;;;;;;0.85;0.85;;;15.40;86.10;;;;;;4174419;28;20195;-54
2022/11/30 07:48:18;;;;;;;0.10;0.10;;;15.50;86.50;;;;;;4175911;28;20063;-53
2022/11/30 07:51:02;;;;;;;0.10;0.10;;;15.50;86.30;;;;;;4175272;28;20114;-54
2022/11/30 07:53:45;;;;;;;0.10;0.10;;;15.60;86.00;;;;;;4176614;28;20155;-59
2022/11/30 07:56:28;;;;;;;0.45;0.45;;;15.60;86.50;;;;;;4175854;28;20109;-59
2022/11/30 07:59:10;;;;;;;0.55;0.55;;;15.70;85.40;;;;;;4175698;28;20055;-59
2022/11/30 08:01:51;;;;;;;0.45;0.45;;;15.80;85.00;;;;;;4174891;28;20218;-60
2022/11/30 08:04:32;;;;;;;0.30;0.30;;;15.80;84.80;;;;;;4158385;28;20346;-60
2022/11/30 08:07:13;;;;;;;0.20;0.20;;;15.80;84.70;;;;;;4172438;28;20380;-59
2022/11/30 08:09:55;;;;;;;0.98;0.98;;;15.90;84.70;;;;;;4169911;28;20084;-50
2022/11/30 08:12:36;;;;;;;0.50;0.50;;;15.90;84.60;;;;;;4159130;28;20071;-53
2022/11/30 08:15:17;;;;;;;0.00;0.00;;;15.90;84.70;;;;;;4170172;28;20063;-53
2022/11/30 08:18:04;;;;;;;0.65;0.65;;;15.90;84.70;;;;;;4164363;28;20056;-56
2022/11/30 08:20:45;;;;;;;1.55;1.45;;;15.90;84.60;;;;;;4173277;28;20566;-62
2022/11/30 08:23:30;;;;;;;0.85;0.85;;;15.90;84.50;;;;;;4185818;28;20070;-63
2022/11/30 08:26:14;;;;;;;;;;;16.00;84.40;;;;;;4183002;28;20072;-59
2022/11/30 08:28:56;;;;;;;0.52;0.52;;;16.00;84.40;;;;;;4174205;28;20368;-62
2022/11/30 08:31:38;;;;;;;1.63;1.52;;;15.90;84.40;;;;;;4174032;28;20500;-60
2022/11/30 08:34:19;;;;;;;0.00;0.00;;;15.90;84.50;;;;;;4172579;28;20178;-60
2022/11/30 08:36:59;;;;;;;0.60;0.60;;;15.90;84.60;;;;;;4165264;28;20121;-49
2022/11/30 08:39:40;;;;;;;0.30;0.30;;;15.80;84.80;;;;;;4190081;27;20054;-53
2022/11/30 08:42:23;;;;;;;0.30;0.30;;;15.80;85.00;;;;;;4174986;28;20633;-49
2022/11/30 08:45:04;;;;;;;0.55;0.55;;;15.70;85.00;;;;;;4190207;28;20048;-53
2022/11/30 08:47:45;;;;;;;0.70;0.70;;;15.70;85.20;;;;;;4182488;28;20067;-49
2022/11/30 08:50:26;;;;;;;1.25;1.25;;;15.70;85.50;;;;;;4189890;28;20059;-52
2022/11/30 08:53:07;;;;;;;1.60;1.50;;;15.60;85.50;;;;;;4181252;28;20087;-51
2022/11/30 08:55:56;;;;;;;0.20;0.20;;;15.60;85.30;;;;;;4176556;28;20056;-51
2022/11/30 08:58:40;;;;;;;0.10;0.10;;;15.60;85.50;;;;;;4189791;28;20129;-50
2022/11/30 09:01:22;;;;;;;1.33;1.30;;;15.50;85.30;;;;;;4175272;28;20983;-49
2022/11/30 09:04:04;;;;;;;0.15;0.15;;;15.40;85.50;;;;;;4174677;28;20609;-50
2022/11/30 09:06:45;;;;;;;2.47;2.38;;;15.40;85.20;;;;;;4184935;28;20070;-55
2022/11/30 09:09:27;;;;;;;2.85;0.93;;;15.30;84.80;;;;;;4189831;27;20112;-57
2022/11/30 09:12:08;;;;;;;4.00;0.90;;;15.20;86.40;;;;;;4184915;28;20202;-56
2022/11/30 09:14:50;;;;;;;0.90;0.90;;;15.20;87.50;;;;;;4190078;28;20078;-57
2022/11/30 09:17:37;;;;;;;2.35;2.25;;;15.20;88.40;;;;;;4180928;28;20176;-59
2022/11/30 09:20:18;;;;;;;1.35;1.35;;;15.20;88.40;;;;;;4184154;28;20063;-58
2022/11/30 09:23:00;;;;;;;0.47;0.47;;;15.40;88.00;;;;;;4187350;28;20054;-59
2022/11/30 09:25:41;;;;;;;1.77;1.67;;;15.50;87.40;;;;;;4189820;28;20051;-58
2022/11/30 09:28:22;;;;;;;7.25;5.47;;;15.50;87.20;;;;;;4189272;28;20060;-59
2022/11/30 09:31:06;;;;;;;0.43;0.43;;;15.60;87.10;;;;;;4181654;28;20174;-58
2022/11/30 09:33:48;;;;;;;0.10;0.10;;;15.60;87.10;;;;;;4174549;28;20059;-59
2022/11/30 09:36:29;;;;;;;4.07;3.42;;;15.70;86.80;;;;;;4179667;28;20047;-59
2022/11/30 09:39:11;;;;;;;1.17;1.17;;;15.80;86.30;;;;;;4183705;28;20056;-54
2022/11/30 09:42:09;;;;;;;1.45;1.23;;;15.90;86.00;;;;;;4174455;28;20060;-55
2022/11/30 09:44:58;;;;;;;3.08;2.65;;;15.90;85.90;;;;;;4174818;28;20186;-56
2022/11/30 09:48:16;;;;;;;0.47;0.47;;;15.90;85.50;;;;;;4182785;28;20117;-58
2022/11/30 09:51:03;;;;;;;0.95;0.95;;;15.90;85.30;;;;;;4181397;28;20118;-59
2022/11/30 09:53:47;;;;;;;0.20;0.20;;;15.90;85.20;;;;;;4181510;28;20060;-59
2022/11/30 09:56:32;;;;;;;1.25;1.25;;;15.90;84.90;;;;;;4188242;28;20054;-59
2022/11/30 09:59:18;;;;;;;5.57;2.78;;;15.90;84.70;;;;;;4171327;28;20056;-58
2022/11/30 10:02:11;;;;;;;2.20;2.10;;;15.90;85.60;;;;;;4172792;28;20182;-58
2022/11/30 10:04:54;;;;;;;1.25;1.25;;;15.90;84.60;;;;;;4174228;28;20064;-57
2022/11/30 10:07:51;;;;;;;2.30;2.20;;;15.80;84.40;;;;;;4173203;28;20059;-58
2022/11/30 10:10:39;;;;;;;7.55;3.67;;;15.80;84.10;;;;;;4179692;28;20115;-58
2022/11/30 10:13:39;;;;;;;0.70;0.70;;;15.70;84.00;;;;;;4178694;28;20051;-59
2022/11/30 10:16:29;;;;;;;0.32;0.32;;;15.70;84.10;;;;;;4160615;28;20056;-60
2022/11/30 10:19:23;;;;;;;1.65;1.55;;;15.60;84.50;;;;;;4176037;27;20549;-53
2022/11/30 10:22:16;;;;;;;0.30;0.30;;;15.50;85.10;;;;;;4176623;28;20059;-55
2022/11/30 10:25:07;;;;;;;0.35;0.35;;;15.50;85.10;;;;;;4187057;28;20051;-54
2022/11/30 10:27:53;;;;;;;0.57;0.57;;;15.40;84.90;;;;;;4169306;28;20270;-56
2022/11/30 10:30:36;;;;;;;0.90;0.90;;;15.40;84.90;;;;;;4172566;28;20052;-53
2022/11/30 10:33:19;;;;;;;0.45;0.45;;;15.40;84.90;;;;;;4173772;28;20408;-54
2022/11/30 10:36:05;;;;;;;2.17;2.08;;;15.30;85.10;;;;;;4179792;28;20452;-53
2022/11/30 10:38:51;;;;;;;1.45;1.45;;;15.40;85.20;;;;;;4188214;28;20047;-55
2022/11/30 10:41:43;;;;;;;0.00;0.00;;;15.30;85.10;;;;;;4172992;28;20094;-59
2022/11/30 10:44:27;;;;;;;0.10;0.10;;;15.30;85.30;;;;;;4173158;28;20059;-59
2022/11/30 10:47:14;;;;;;;0.82;0.82;;;15.40;85.40;;;;;;4178720;28;20068;-59
2022/11/30 10:49:55;;;;;;;2.78;2.58;;;15.40;84.90;;;;;;4179675;28;20197;-59
2022/11/30 10:52:44;;;;;;;0.20;0.20;;;15.50;84.70;;;;;;4182448;28;20080;-59
2022/11/30 10:55:30;;;;;;;1.00;0.77;;;15.60;84.30;;;;;;4174000;28;20137;-59
2022/11/30 10:58:20;;;;;;;2.38;2.30;;;15.70;83.70;;;;;;4174025;28;20071;-59
2022/11/30 11:01:04;;;;;;;0.20;0.20;;;15.70;83.10;;;;;;4173418;27;20056;-59
2022/11/30 11:03:45;;;;;;;0.20;0.20;;;15.80;82.70;;;;;;4170855;28;20060;-60
2022/11/30 11:06:27;;;;;;;0.10;0.10;;;15.80;82.50;;;;;;4173463;28;20060;-60
2022/11/30 11:09:23;;;;;;;;;;;15.80;82.20;;;;;;4176293;28;20048;-51
2022/11/30 11:12:13;;;;;;;0.65;0.65;;;15.80;82.10;;;;;;4181949;28;19932;-49
2022/11/30 11:15:08;;;;;;;3.67;3.42;;;15.90;81.80;;;;;;4172872;28;20110;-50
2022/11/30 11:17:50;;;;;;;1.48;1.38;;;16.00;81.30;;;;;;4185955;28;20102;-50
2022/11/30 11:20:34;;;;;;;0.88;0.70;;;16.00;81.00;;;;;;4177357;28;20044;-49
2022/11/30 11:23:22;;;;;;;0.60;0.60;;;16.00;80.80;;;;;;4170380;28;20079;-51
2022/11/30 11:26:05;;;;;;;0.20;0.20;;;16.00;80.50;;;;;;4185838;28;20594;-49
2022/11/30 11:28:50;;;;;;;0.60;0.60;;;15.90;80.40;;;;;;4174788;28;20140;-50
2022/11/30 11:31:36;;;;;;;6.55;1.00;;;15.90;80.70;;;;;;4174174;28;20055;-54
2022/11/30 11:34:25;;;;;;;0.30;0.30;;;15.80;80.70;;;;;;4173543;28;20159;-54
2022/11/30 11:37:08;;;;;;;0.08;0.08;;;15.80;81.00;;;;;;4184398;28;20517;-59
2022/11/30 11:40:14;;;;;;;0.57;0.57;;;15.70;80.90;;;;;;4172278;28;20125;-60
2022/11/30 11:42:57;;;;;;;0.70;0.70;;;15.60;81.10;;;;;;4172488;28;20060;-59
2022/11/30 11:45:39;;;;;;;1.20;1.20;;;15.60;81.10;;;;;;4175805;28;20502;-51
2022/11/30 11:48:32;;;;;;;1.10;1.10;;;15.50;81.00;;;;;;4191546;28;20051;-59
2022/11/30 11:51:13;;;;;;;0.70;0.70;;;15.50;81.40;;;;;;4174304;28;20044;-60
2022/11/30 11:53:57;;;;;;;0.15;0.15;;;15.40;81.60;;;;;;4179746;28;20060;-59
2022/11/30 11:56:38;;;;;;;0.10;0.10;;;15.40;81.20;;;;;;4181375;28;20059;-59
2022/11/30 11:59:22;;;;;;;0.10;0.10;;;15.30;81.00;;;;;;4181206;28;20467;-59
2022/11/30 12:02:21;;;;;;;0.95;0.95;;;15.20;81.50;;;;;;4190966;28;20075;-59
2022/11/30 12:05:08;;;;;;;2.67;0.75;;;15.20;82.80;;;;;;4171550;28;20065;-58
2022/11/30 12:08:02;;;;;;;0.70;0.70;;;15.10;82.00;;;;;;4173559;28;20504;-57
2022/11/30 12:10:49;;;;;;;0.43;0.43;;;15.00;82.20;;;;;;4190348;28;20396;-59
2022/11/30 12:13:34;;;;;;;1.52;0.70;;;15.00;82.40;;;;;;4191317;28;20151;-51
2022/11/30 12:16:30;;;;;;;0.45;0.45;;;15.00;81.20;;;;;;4175705;28;20089;-53
2022/11/30 12:19:20;;;;;;;0.55;0.55;;;14.90;81.80;;;;;;4190548;28;20133;-50
2022/11/30 12:22:13;;;;;;;2.47;2.38;;;14.90;80.20;;;;;;4171931;28;20071;-59
2022/11/30 12:25:05;;;;;;;1.85;1.65;;;14.80;79.60;;;;;;4174446;28;20051;-59
2022/11/30 12:27:55;;;;;;;0.82;0.82;;;14.70;81.80;;;;;;4175008;28;20138;-59
2022/11/30 12:30:46;;;;;;;0.10;0.10;;;14.70;83.90;;;;;;4190128;28;20067;-59
2022/11/30 12:33:44;;;;;;;0.10;0.10;;;14.80;84.20;;;;;;4181013;28;20072;-55
2022/11/30 12:36:39;;;;;;;1.55;1.45;;;14.80;83.80;;;;;;4179648;27;20047;-59
2022/11/30 12:39:29;;;;;;;0.08;0.08;;;14.80;83.60;;;;;;4174635;28;20060;-59
2022/11/30 12:42:15;;;;;;;0.25;0.25;;;14.90;84.00;;;;;;4186830;28;20147;-59
2022/11/30 12:45:03;;;;;;;2.60;2.13;;;14.90;84.10;;;;;;4175049;28;20141;-59
2022/11/30 12:47:51;;;;;;;0.20;0.20;;;15.00;83.80;;;;;;4173518;28;20515;-59
2022/11/30 12:50:45;;;;;;;0.00;0.00;;;15.10;83.20;;;;;;4178799;28;20060;-59
2022/11/30 12:53:34;;;;;;;0.75;0.75;;;15.20;83.00;;;;;;4158057;28;20187;-58
2022/11/30 12:56:27;;;;;;;0.73;0.73;;;15.30;83.10;;;;;;4157063;28;20064;-59
2022/11/30 12:59:18;;;;;;;0.73;0.70;;;15.40;83.10;;;;;;4158477;28;20199;-58
2022/11/30 13:02:20;;;;;;;0.98;0.98;;;15.50;82.80;;;;;;4163302;28;20203;-59
2022/11/30 13:05:06;;;;;;;2.40;1.40;;;15.50;82.70;;;;;;4158588;28;20094;-60
2022/11/30 13:07:53;;;;;;;0.70;0.70;;;15.50;82.80;;;;;;4158178;28;20566;-59
2022/11/30 13:10:42;;;;;;;0.45;0.45;;;15.50;83.20;;;;;;4174168;28;20059;-59
2022/11/30 13:13:28;;;;;;;0.90;0.90;;;15.50;83.40;;;;;;4179987;28;20059;-59
2022/11/30 13:16:09;;;;;;;0.98;0.80;;;15.50;83.60;;;;;;4180006;28;20419;-59
2022/11/30 13:18:52;;;;;;;0.22;0.22;;;15.40;83.70;;;;;;4173529;28;20122;-59
2022/11/30 13:21:37;;;;;;;1.75;1.65;;;15.40;83.90;;;;;;4183695;28;20572;-59
2022/11/30 13:24:27;;;;;;;1.52;1.30;;;15.50;84.10;;;;;;4174003;28;20055;-59
2022/11/30 13:27:16;;;;;;;0.35;0.35;;;15.50;83.80;;;;;;4182045;28;20483;-59
2022/11/30 13:30:19;;;;;;;0.57;0.57;;;15.60;84.30;;;;;;4181245;28;21119;-60
2022/11/30 13:33:33;;;;;;;0.30;0.30;;;15.60;82.90;;;;;;4161263;28;20191;-60
2022/11/30 13:36:37;;;;;;;0.68;0.68;;;15.60;83.10;;;;;;4173643;28;20053;-55
2022/11/30 13:39:24;;;;;;;0.57;0.57;;;15.60;83.40;;;;;;4175440;28;20052;-56
2022/11/30 13:42:37;;;;;;;1.55;0.80;;;15.50;83.60;;;;;;4175919;28;20059;-53
2022/11/30 13:45:32;;;;;;;1.27;1.05;;;15.50;83.80;;;;;;4178972;28;20078;-53
2022/11/30 13:48:19;;;;;;;3.35;1.35;;;15.50;83.90;;;;;;4160475;28;20097;-61
2022/11/30 13:51:00;;;;;;;0.35;0.35;;;15.50;84.00;;;;;;4177147;28;20067;-54
2022/11/30 13:53:42;;;;;;;2.53;2.38;;;15.50;83.90;;;;;;4181503;28;20067;-59
2022/11/30 13:56:41;;;;;;;1.52;1.10;;;15.50;83.80;;;;;;4180516;28;20044;-60
2022/11/30 13:59:39;;;;;;;1.35;1.25;;;15.40;84.00;;;;;;4185123;28;20411;-60
2022/11/30 14:02:57;;;;;;;0.32;0.32;;;15.40;84.10;;;;;;4177737;28;20064;-51
2022/11/30 14:05:40;;;;;;;0.00;0.00;;;15.40;84.30;;;;;;4181558;28;20070;-60
2022/11/30 14:08:38;;;;;;;2.05;1.95;;;15.30;84.70;;;;;;4179088;28;20091;-60
2022/11/30 14:11:39;;;;;;;0.90;0.90;;;15.40;85.10;;;;;;4179994;28;20122;-60
2022/11/30 14:14:44;;;;;;;2.22;2.00;;;15.50;85.00;;;;;;4173018;28;20087;-60
2022/11/30 14:17:27;;;;;;;2.25;2.15;;;15.50;84.60;;;;;;4163971;28;20131;-60
2022/11/30 14:20:17;;;;;;;0.68;0.68;;;15.60;84.40;;;;;;4158006;28;20064;-60